sensor_id;sensor_type;location;lat;lon;timestamp;P1;durP1;ratioP1;P2;durP2;ratioP2
66886;SDS011;67239;51.680;5.976;2023-07-13T00:02:23;8.80;;;1.77;;
66886;SDS011;67239;51.680;5.976;2023-07-13T00:04:51;7.97;;;1.90;;
66886;SDS011;67239;51.680;5.976;2023-07-13T00:07:19;5.47;;;2.10;;
66886;SDS011;67239;51.680;5.976;2023-07-13T00:09:50;7.13;;;2.08;;
66886;SDS011;67239;51.680;5.976;2023-07-13T00:12:28;5.75;;;1.90;;
66886;SDS011;67239;51.680;5.976;2023-07-13T00:15:06;8.02;;;1.77;;
66886;SDS011;67239;51.680;5.976;2023-07-13T00:17:40;6.35;;;1.92;;
66886;SDS011;67239;51.680;5.976;2023-07-13T00:20:07;6.38;;;1.85;;
66886;SDS011;67239;51.680;5.976;2023-07-13T00:22:35;6.70;;;1.85;;
66886;SDS011;67239;51.680;5.976;2023-07-13T00:25:03;6.65;;;2.00;;
66886;SDS011;67239;51.680;5.976;2023-07-13T00:27:31;10.70;;;2.22;;
66886;SDS011;67239;51.680;5.976;2023-07-13T00:29:58;9.65;;;2.03;;
66886;SDS011;67239;51.680;5.976;2023-07-13T00:32:26;7.03;;;1.80;;
66886;SDS011;67239;51.680;5.976;2023-07-13T00:34:54;7.20;;;1.92;;
66886;SDS011;67239;51.680;5.976;2023-07-13T00:37:23;6.95;;;2.25;;
66886;SDS011;67239;51.680;5.976;2023-07-13T00:39:50;6.45;;;2.10;;
66886;SDS011;67239;51.680;5.976;2023-07-13T00:42:18;6.28;;;2.03;;
66886;SDS011;67239;51.680;5.976;2023-07-13T00:47:38;6.57;;;2.13;;
66886;SDS011;67239;51.680;5.976;2023-07-13T00:50:12;6.18;;;1.80;;
66886;SDS011;67239;51.680;5.976;2023-07-13T00:52:46;8.23;;;2.00;;
66886;SDS011;67239;51.680;5.976;2023-07-13T00:55:20;7.63;;;2.03;;
66886;SDS011;67239;51.680;5.976;2023-07-13T00:57:49;4.40;;;1.80;;
66886;SDS011;67239;51.680;5.976;2023-07-13T01:00:16;7.95;;;2.20;;
66886;SDS011;67239;51.680;5.976;2023-07-13T01:02:46;4.93;;;1.90;;
66886;SDS011;67239;51.680;5.976;2023-07-13T01:05:18;6.95;;;2.10;;
66886;SDS011;67239;51.680;5.976;2023-07-13T01:07:48;6.45;;;2.20;;
66886;SDS011;67239;51.680;5.976;2023-07-13T01:10:21;6.10;;;1.70;;
66886;SDS011;67239;51.680;5.976;2023-07-13T01:12:49;7.80;;;2.40;;
66886;SDS011;67239;51.680;5.976;2023-07-13T01:18:26;6.68;;;1.92;;
66886;SDS011;67239;51.680;5.976;2023-07-13T01:20:56;5.03;;;1.77;;
66886;SDS011;67239;51.680;5.976;2023-07-13T01:23:27;7.95;;;2.25;;
66886;SDS011;67239;51.680;5.976;2023-07-13T01:25:56;5.75;;;1.90;;
66886;SDS011;67239;51.680;5.976;2023-07-13T01:28:26;8.48;;;2.47;;
66886;SDS011;67239;51.680;5.976;2023-07-13T01:30:56;6.63;;;2.13;;
66886;SDS011;67239;51.680;5.976;2023-07-13T01:33:25;4.43;;;1.67;;
66886;SDS011;67239;51.680;5.976;2023-07-13T01:35:53;6.40;;;1.90;;
66886;SDS011;67239;51.680;5.976;2023-07-13T01:38:22;5.15;;;1.70;;
66886;SDS011;67239;51.680;5.976;2023-07-13T01:40:51;4.95;;;2.03;;
66886;SDS011;67239;51.680;5.976;2023-07-13T01:43:19;4.18;;;2.00;;
66886;SDS011;67239;51.680;5.976;2023-07-13T01:45:48;8.20;;;2.33;;
66886;SDS011;67239;51.680;5.976;2023-07-13T01:48:15;4.60;;;1.85;;
66886;SDS011;67239;51.680;5.976;2023-07-13T01:50:42;5.78;;;1.98;;
66886;SDS011;67239;51.680;5.976;2023-07-13T01:53:10;6.47;;;1.95;;
66886;SDS011;67239;51.680;5.976;2023-07-13T01:55:38;4.88;;;1.80;;
66886;SDS011;67239;51.680;5.976;2023-07-13T01:58:07;5.95;;;1.77;;
66886;SDS011;67239;51.680;5.976;2023-07-13T02:00:35;9.68;;;2.08;;
66886;SDS011;67239;51.680;5.976;2023-07-13T02:03:02;5.72;;;1.80;;
66886;SDS011;67239;51.680;5.976;2023-07-13T02:05:31;5.95;;;1.67;;
66886;SDS011;67239;51.680;5.976;2023-07-13T02:07:58;8.02;;;2.38;;
66886;SDS011;67239;51.680;5.976;2023-07-13T02:10:26;6.32;;;1.77;;
66886;SDS011;67239;51.680;5.976;2023-07-13T02:12:53;5.28;;;1.98;;
66886;SDS011;67239;51.680;5.976;2023-07-13T02:15:20;2.95;;;1.85;;
66886;SDS011;67239;51.680;5.976;2023-07-13T02:17:48;8.27;;;2.17;;
66886;SDS011;67239;51.680;5.976;2023-07-13T02:20:15;5.88;;;1.92;;
66886;SDS011;67239;51.680;5.976;2023-07-13T02:22:42;7.25;;;2.10;;
66886;SDS011;67239;51.680;5.976;2023-07-13T02:25:09;5.63;;;1.92;;
66886;SDS011;67239;51.680;5.976;2023-07-13T02:27:36;7.25;;;1.80;;
66886;SDS011;67239;51.680;5.976;2023-07-13T02:30:04;5.85;;;1.90;;
66886;SDS011;67239;51.680;5.976;2023-07-13T02:32:32;8.45;;;1.90;;
66886;SDS011;67239;51.680;5.976;2023-07-13T02:35:00;7.03;;;1.88;;
66886;SDS011;67239;51.680;5.976;2023-07-13T02:37:28;4.38;;;1.90;;
66886;SDS011;67239;51.680;5.976;2023-07-13T02:39:56;7.72;;;1.67;;
66886;SDS011;67239;51.680;5.976;2023-07-13T02:42:24;4.75;;;2.25;;
66886;SDS011;67239;51.680;5.976;2023-07-13T02:44:51;5.13;;;2.05;;
66886;SDS011;67239;51.680;5.976;2023-07-13T02:47:18;6.68;;;2.25;;
66886;SDS011;67239;51.680;5.976;2023-07-13T02:49:45;6.10;;;2.00;;
66886;SDS011;67239;51.680;5.976;2023-07-13T02:52:12;5.65;;;2.08;;
66886;SDS011;67239;51.680;5.976;2023-07-13T02:54:40;6.03;;;2.20;;
66886;SDS011;67239;51.680;5.976;2023-07-13T02:57:07;6.18;;;2.08;;
66886;SDS011;67239;51.680;5.976;2023-07-13T02:59:34;6.68;;;2.10;;
66886;SDS011;67239;51.680;5.976;2023-07-13T03:02:02;5.68;;;1.92;;
66886;SDS011;67239;51.680;5.976;2023-07-13T03:04:30;7.35;;;2.20;;
66886;SDS011;67239;51.680;5.976;2023-07-13T03:06:57;4.60;;;1.77;;
66886;SDS011;67239;51.680;5.976;2023-07-13T03:09:32;8.13;;;2.03;;
66886;SDS011;67239;51.680;5.976;2023-07-13T03:12:04;9.60;;;2.53;;
66886;SDS011;67239;51.680;5.976;2023-07-13T03:14:32;7.70;;;2.20;;
66886;SDS011;67239;51.680;5.976;2023-07-13T03:17:01;4.05;;;1.92;;
66886;SDS011;67239;51.680;5.976;2023-07-13T03:19:31;4.40;;;1.88;;
66886;SDS011;67239;51.680;5.976;2023-07-13T03:22:02;5.07;;;2.17;;
66886;SDS011;67239;51.680;5.976;2023-07-13T03:24:29;6.68;;;2.20;;
66886;SDS011;67239;51.680;5.976;2023-07-13T03:26:58;6.20;;;1.88;;
66886;SDS011;67239;51.680;5.976;2023-07-13T03:29:28;5.72;;;2.53;;
66886;SDS011;67239;51.680;5.976;2023-07-13T03:31:55;10.95;;;2.20;;
66886;SDS011;67239;51.680;5.976;2023-07-13T03:34:23;6.78;;;2.42;;
66886;SDS011;67239;51.680;5.976;2023-07-13T03:36:53;7.13;;;2.10;;
66886;SDS011;67239;51.680;5.976;2023-07-13T03:39:22;5.65;;;1.83;;
66886;SDS011;67239;51.680;5.976;2023-07-13T03:41:53;6.95;;;1.95;;
66886;SDS011;67239;51.680;5.976;2023-07-13T03:44:21;8.00;;;2.70;;
66886;SDS011;67239;51.680;5.976;2023-07-13T03:46:53;7.32;;;2.17;;
66886;SDS011;67239;51.680;5.976;2023-07-13T03:49:20;7.15;;;2.17;;
66886;SDS011;67239;51.680;5.976;2023-07-13T03:51:48;7.47;;;2.22;;
66886;SDS011;67239;51.680;5.976;2023-07-13T03:54:19;8.18;;;2.40;;
66886;SDS011;67239;51.680;5.976;2023-07-13T03:56:47;6.85;;;2.30;;
66886;SDS011;67239;51.680;5.976;2023-07-13T03:59:15;9.25;;;2.25;;
66886;SDS011;67239;51.680;5.976;2023-07-13T04:01:43;6.15;;;2.17;;
66886;SDS011;67239;51.680;5.976;2023-07-13T04:04:12;11.18;;;2.15;;
66886;SDS011;67239;51.680;5.976;2023-07-13T04:06:39;8.10;;;2.60;;
66886;SDS011;67239;51.680;5.976;2023-07-13T04:09:06;11.50;;;2.60;;
66886;SDS011;67239;51.680;5.976;2023-07-13T04:11:36;10.23;;;2.38;;
66886;SDS011;67239;51.680;5.976;2023-07-13T04:14:03;11.57;;;2.42;;
66886;SDS011;67239;51.680;5.976;2023-07-13T04:16:30;7.40;;;2.50;;
66886;SDS011;67239;51.680;5.976;2023-07-13T04:18:59;10.63;;;2.30;;
66886;SDS011;67239;51.680;5.976;2023-07-13T04:21:28;6.75;;;2.35;;
66886;SDS011;67239;51.680;5.976;2023-07-13T04:23:57;10.38;;;2.15;;
66886;SDS011;67239;51.680;5.976;2023-07-13T04:26:25;7.30;;;2.92;;
66886;SDS011;67239;51.680;5.976;2023-07-13T04:28:52;12.10;;;2.83;;
66886;SDS011;67239;51.680;5.976;2023-07-13T04:31:19;12.00;;;2.40;;
66886;SDS011;67239;51.680;5.976;2023-07-13T04:33:47;10.40;;;3.03;;
66886;SDS011;67239;51.680;5.976;2023-07-13T04:36:16;9.30;;;2.67;;
66886;SDS011;67239;51.680;5.976;2023-07-13T04:38:43;7.90;;;2.70;;
66886;SDS011;67239;51.680;5.976;2023-07-13T04:41:10;9.35;;;2.58;;
66886;SDS011;67239;51.680;5.976;2023-07-13T04:43:42;12.18;;;3.22;;
66886;SDS011;67239;51.680;5.976;2023-07-13T04:46:11;9.82;;;2.40;;
66886;SDS011;67239;51.680;5.976;2023-07-13T04:48:42;8.45;;;2.58;;
66886;SDS011;67239;51.680;5.976;2023-07-13T04:51:09;11.23;;;3.20;;
66886;SDS011;67239;51.680;5.976;2023-07-13T04:53:37;8.48;;;2.83;;
66886;SDS011;67239;51.680;5.976;2023-07-13T04:56:04;8.68;;;2.95;;
66886;SDS011;67239;51.680;5.976;2023-07-13T04:58:32;9.18;;;3.08;;
66886;SDS011;67239;51.680;5.976;2023-07-13T05:01:01;13.73;;;2.72;;
66886;SDS011;67239;51.680;5.976;2023-07-13T05:03:33;9.65;;;2.88;;
66886;SDS011;67239;51.680;5.976;2023-07-13T05:06:02;8.43;;;2.72;;
66886;SDS011;67239;51.680;5.976;2023-07-13T05:08:33;9.27;;;3.00;;
66886;SDS011;67239;51.680;5.976;2023-07-13T05:11:01;7.15;;;2.63;;
66886;SDS011;67239;51.680;5.976;2023-07-13T05:13:30;12.48;;;3.20;;
66886;SDS011;67239;51.680;5.976;2023-07-13T05:16:01;12.32;;;2.90;;
66886;SDS011;67239;51.680;5.976;2023-07-13T05:18:33;11.25;;;3.63;;
66886;SDS011;67239;51.680;5.976;2023-07-13T05:21:02;12.52;;;4.00;;
66886;SDS011;67239;51.680;5.976;2023-07-13T05:23:35;14.18;;;3.65;;
66886;SDS011;67239;51.680;5.976;2023-07-13T05:26:04;11.27;;;3.38;;
66886;SDS011;67239;51.680;5.976;2023-07-13T05:28:35;14.63;;;4.03;;
66886;SDS011;67239;51.680;5.976;2023-07-13T05:31:04;20.00;;;4.70;;
66886;SDS011;67239;51.680;5.976;2023-07-13T05:33:34;14.98;;;4.28;;
66886;SDS011;67239;51.680;5.976;2023-07-13T05:36:02;13.95;;;5.25;;
66886;SDS011;67239;51.680;5.976;2023-07-13T05:38:29;11.65;;;4.05;;
66886;SDS011;67239;51.680;5.976;2023-07-13T05:40:57;15.75;;;5.07;;
66886;SDS011;67239;51.680;5.976;2023-07-13T05:43:25;17.52;;;5.55;;
66886;SDS011;67239;51.680;5.976;2023-07-13T05:45:53;21.55;;;6.72;;
66886;SDS011;67239;51.680;5.976;2023-07-13T05:48:23;18.38;;;5.47;;
66886;SDS011;67239;51.680;5.976;2023-07-13T05:50:51;25.65;;;6.25;;
66886;SDS011;67239;51.680;5.976;2023-07-13T05:53:20;14.77;;;5.82;;
66886;SDS011;67239;51.680;5.976;2023-07-13T05:55:48;14.75;;;5.70;;
66886;SDS011;67239;51.680;5.976;2023-07-13T05:58:20;15.95;;;6.05;;
66886;SDS011;67239;51.680;5.976;2023-07-13T06:00:49;14.27;;;6.38;;
66886;SDS011;67239;51.680;5.976;2023-07-13T06:03:34;18.38;;;6.50;;
66886;SDS011;67239;51.680;5.976;2023-07-13T06:06:01;20.85;;;7.32;;
66886;SDS011;67239;51.680;5.976;2023-07-13T06:08:29;21.10;;;7.57;;
66886;SDS011;67239;51.680;5.976;2023-07-13T06:13:57;19.02;;;7.88;;
66886;SDS011;67239;51.680;5.976;2023-07-13T06:16:24;21.50;;;8.43;;
66886;SDS011;67239;51.680;5.976;2023-07-13T06:18:52;24.42;;;9.00;;
66886;SDS011;67239;51.680;5.976;2023-07-13T06:21:20;24.83;;;9.52;;
66886;SDS011;67239;51.680;5.976;2023-07-13T06:23:50;25.02;;;9.25;;
66886;SDS011;67239;51.680;5.976;2023-07-13T06:26:18;18.90;;;8.95;;
66886;SDS011;67239;51.680;5.976;2023-07-13T06:28:47;24.08;;;9.65;;
66886;SDS011;67239;51.680;5.976;2023-07-13T06:31:15;21.17;;;9.43;;
66886;SDS011;67239;51.680;5.976;2023-07-13T06:33:43;25.15;;;8.77;;
66886;SDS011;67239;51.680;5.976;2023-07-13T06:36:11;22.52;;;8.95;;
66886;SDS011;67239;51.680;5.976;2023-07-13T06:38:38;18.85;;;9.45;;
66886;SDS011;67239;51.680;5.976;2023-07-13T06:41:06;20.95;;;9.27;;
66886;SDS011;67239;51.680;5.976;2023-07-13T06:43:36;24.85;;;8.88;;
66886;SDS011;67239;51.680;5.976;2023-07-13T06:46:03;21.15;;;8.85;;
66886;SDS011;67239;51.680;5.976;2023-07-13T06:48:30;23.58;;;8.30;;
66886;SDS011;67239;51.680;5.976;2023-07-13T06:50:58;21.60;;;8.75;;
66886;SDS011;67239;51.680;5.976;2023-07-13T06:53:25;21.80;;;7.82;;
66886;SDS011;67239;51.680;5.976;2023-07-13T06:55:52;17.27;;;7.97;;
66886;SDS011;67239;51.680;5.976;2023-07-13T06:58:20;21.27;;;8.10;;
66886;SDS011;67239;51.680;5.976;2023-07-13T07:00:50;19.17;;;7.40;;
66886;SDS011;67239;51.680;5.976;2023-07-13T07:03:19;24.70;;;8.35;;
66886;SDS011;67239;51.680;5.976;2023-07-13T07:05:47;23.05;;;7.90;;
66886;SDS011;67239;51.680;5.976;2023-07-13T07:08:14;21.48;;;7.45;;
66886;SDS011;67239;51.680;5.976;2023-07-13T07:10:41;22.67;;;7.70;;
66886;SDS011;67239;51.680;5.976;2023-07-13T07:13:09;18.23;;;7.50;;
66886;SDS011;67239;51.680;5.976;2023-07-13T07:15:36;17.70;;;7.57;;
66886;SDS011;67239;51.680;5.976;2023-07-13T07:18:03;18.55;;;7.88;;
66886;SDS011;67239;51.680;5.976;2023-07-13T07:20:31;21.33;;;7.65;;
66886;SDS011;67239;51.680;5.976;2023-07-13T07:22:59;15.90;;;7.60;;
66886;SDS011;67239;51.680;5.976;2023-07-13T07:25:27;24.73;;;7.88;;
66886;SDS011;67239;51.680;5.976;2023-07-13T07:27:58;16.83;;;7.55;;
66886;SDS011;67239;51.680;5.976;2023-07-13T07:30:28;19.10;;;8.20;;
66886;SDS011;67239;51.680;5.976;2023-07-13T07:32:59;17.20;;;7.78;;
66886;SDS011;67239;51.680;5.976;2023-07-13T07:35:30;17.05;;;7.15;;
66886;SDS011;67239;51.680;5.976;2023-07-13T07:38:03;21.17;;;7.47;;
66886;SDS011;67239;51.680;5.976;2023-07-13T07:40:31;17.05;;;7.45;;
66886;SDS011;67239;51.680;5.976;2023-07-13T07:43:01;19.50;;;7.80;;
66886;SDS011;67239;51.680;5.976;2023-07-13T07:45:28;18.67;;;7.93;;
66886;SDS011;67239;51.680;5.976;2023-07-13T07:47:55;21.30;;;7.65;;
66886;SDS011;67239;51.680;5.976;2023-07-13T07:50:26;16.23;;;7.38;;
66886;SDS011;67239;51.680;5.976;2023-07-13T07:52:54;18.65;;;7.68;;
66886;SDS011;67239;51.680;5.976;2023-07-13T07:55:25;16.50;;;7.03;;
66886;SDS011;67239;51.680;5.976;2023-07-13T07:57:58;20.25;;;7.68;;
66886;SDS011;67239;51.680;5.976;2023-07-13T08:00:28;20.02;;;7.72;;
66886;SDS011;67239;51.680;5.976;2023-07-13T08:03:18;19.30;;;7.85;;
66886;SDS011;67239;51.680;5.976;2023-07-13T08:05:48;13.43;;;6.63;;
66886;SDS011;67239;51.680;5.976;2023-07-13T08:08:35;16.52;;;7.03;;
66886;SDS011;67239;51.680;5.976;2023-07-13T08:11:03;17.25;;;7.32;;
66886;SDS011;67239;51.680;5.976;2023-07-13T08:13:52;21.98;;;7.63;;
66886;SDS011;67239;51.680;5.976;2023-07-13T08:16:22;26.58;;;8.15;;
66886;SDS011;67239;51.680;5.976;2023-07-13T08:18:50;18.58;;;6.68;;
66886;SDS011;67239;51.680;5.976;2023-07-13T08:21:17;23.40;;;7.40;;
66886;SDS011;67239;51.680;5.976;2023-07-13T08:23:46;20.38;;;7.82;;
66886;SDS011;67239;51.680;5.976;2023-07-13T08:26:14;21.85;;;7.13;;
66886;SDS011;67239;51.680;5.976;2023-07-13T08:28:41;21.10;;;7.82;;
66886;SDS011;67239;51.680;5.976;2023-07-13T08:31:08;19.38;;;7.32;;
66886;SDS011;67239;51.680;5.976;2023-07-13T08:33:37;23.83;;;7.80;;
66886;SDS011;67239;51.680;5.976;2023-07-13T08:36:05;16.73;;;6.43;;
66886;SDS011;67239;51.680;5.976;2023-07-13T08:38:32;18.52;;;6.50;;
66886;SDS011;67239;51.680;5.976;2023-07-13T08:41:00;42.88;;;10.60;;
66886;SDS011;67239;51.680;5.976;2023-07-13T08:43:39;37.85;;;8.48;;
66886;SDS011;67239;51.680;5.976;2023-07-13T08:51:45;20.98;;;6.00;;
66886;SDS011;67239;51.680;5.976;2023-07-13T08:54:22;13.50;;;5.80;;
66886;SDS011;67239;51.680;5.976;2023-07-13T08:57:12;29.02;;;6.15;;
66886;SDS011;67239;51.680;5.976;2023-07-13T08:59:45;16.33;;;5.68;;
66886;SDS011;67239;51.680;5.976;2023-07-13T09:02:23;19.65;;;6.40;;
66886;SDS011;67239;51.680;5.976;2023-07-13T09:04:56;23.58;;;6.50;;
66886;SDS011;67239;51.680;5.976;2023-07-13T09:07:47;12.60;;;4.90;;
66886;SDS011;67239;51.680;5.976;2023-07-13T09:10:46;22.95;;;5.70;;
66886;SDS011;67239;51.680;5.976;2023-07-13T09:16:01;23.60;;;4.95;;
66886;SDS011;67239;51.680;5.976;2023-07-13T09:18:47;14.40;;;5.22;;
66886;SDS011;67239;51.680;5.976;2023-07-13T09:21:23;13.75;;;4.78;;
66886;SDS011;67239;51.680;5.976;2023-07-13T09:24:00;14.43;;;4.32;;
66886;SDS011;67239;51.680;5.976;2023-07-13T09:26:59;17.27;;;5.35;;
66886;SDS011;67239;51.680;5.976;2023-07-13T09:29:32;19.63;;;4.57;;
66886;SDS011;67239;51.680;5.976;2023-07-13T09:32:04;19.60;;;4.97;;
66886;SDS011;67239;51.680;5.976;2023-07-13T09:34:39;18.20;;;4.28;;
66886;SDS011;67239;51.680;5.976;2023-07-13T09:37:06;15.20;;;4.40;;
66886;SDS011;67239;51.680;5.976;2023-07-13T09:39:34;19.75;;;4.30;;
66886;SDS011;67239;51.680;5.976;2023-07-13T09:44:38;21.52;;;4.78;;
66886;SDS011;67239;51.680;5.976;2023-07-13T09:47:21;17.60;;;3.97;;
66886;SDS011;67239;51.680;5.976;2023-07-13T09:49:54;22.83;;;3.78;;
66886;SDS011;67239;51.680;5.976;2023-07-13T09:55:33;10.68;;;3.38;;
66886;SDS011;67239;51.680;5.976;2023-07-13T10:00:56;20.08;;;4.15;;
66886;SDS011;67239;51.680;5.976;2023-07-13T10:03:28;15.93;;;3.88;;
66886;SDS011;67239;51.680;5.976;2023-07-13T10:06:15;12.23;;;3.20;;
66886;SDS011;67239;51.680;5.976;2023-07-13T10:08:46;10.77;;;3.33;;
66886;SDS011;67239;51.680;5.976;2023-07-13T10:11:21;13.20;;;2.80;;
66886;SDS011;67239;51.680;5.976;2023-07-13T10:13:55;17.17;;;3.72;;
66886;SDS011;67239;51.680;5.976;2023-07-13T10:16:24;15.07;;;3.38;;
66886;SDS011;67239;51.680;5.976;2023-07-13T10:19:02;15.43;;;3.00;;
66886;SDS011;67239;51.680;5.976;2023-07-13T10:21:52;11.82;;;3.00;;
66886;SDS011;67239;51.680;5.976;2023-07-13T10:26:54;8.27;;;2.47;;
66886;SDS011;67239;51.680;5.976;2023-07-13T10:29:34;17.15;;;2.72;;
66886;SDS011;67239;51.680;5.976;2023-07-13T10:32:12;7.45;;;2.47;;
66886;SDS011;67239;51.680;5.976;2023-07-13T10:34:41;9.35;;;2.53;;
66886;SDS011;67239;51.680;5.976;2023-07-13T10:37:15;6.60;;;2.58;;
66886;SDS011;67239;51.680;5.976;2023-07-13T10:39:49;7.15;;;2.55;;
66886;SDS011;67239;51.680;5.976;2023-07-13T10:42:25;7.15;;;2.58;;
66886;SDS011;67239;51.680;5.976;2023-07-13T10:47:20;8.30;;;2.42;;
66886;SDS011;67239;51.680;5.976;2023-07-13T10:49:48;13.35;;;2.40;;
66886;SDS011;67239;51.680;5.976;2023-07-13T10:58:20;6.05;;;1.98;;
66886;SDS011;67239;51.680;5.976;2023-07-13T11:12:08;6.32;;;1.92;;
66886;SDS011;67239;51.680;5.976;2023-07-13T11:15:13;12.40;;;2.20;;
66886;SDS011;67239;51.680;5.976;2023-07-13T11:17:48;13.65;;;2.20;;
66886;SDS011;67239;51.680;5.976;2023-07-13T11:20:31;8.25;;;2.30;;
66886;SDS011;67239;51.680;5.976;2023-07-13T11:23:15;8.90;;;2.20;;
66886;SDS011;67239;51.680;5.976;2023-07-13T11:25:53;6.25;;;2.15;;
66886;SDS011;67239;51.680;5.976;2023-07-13T11:28:24;6.13;;;2.03;;
66886;SDS011;67239;51.680;5.976;2023-07-13T11:33:24;8.00;;;3.70;;
66886;SDS011;67239;51.680;5.976;2023-07-13T11:35:59;6.40;;;2.92;;
66886;SDS011;67239;51.680;5.976;2023-07-13T11:38:38;5.90;;;2.50;;
66886;SDS011;67239;51.680;5.976;2023-07-13T11:44:06;3.67;;;2.20;;
66886;SDS011;67239;51.680;5.976;2023-07-13T11:46:47;3.92;;;2.70;;
66886;SDS011;67239;51.680;5.976;2023-07-13T11:49:23;6.20;;;2.67;;
66886;SDS011;67239;51.680;5.976;2023-07-13T11:51:59;6.63;;;3.00;;
66886;SDS011;67239;51.680;5.976;2023-07-13T11:54:30;4.68;;;3.13;;
66886;SDS011;67239;51.680;5.976;2023-07-13T11:57:05;4.70;;;2.88;;
66886;SDS011;67239;51.680;5.976;2023-07-13T11:59:50;5.95;;;3.10;;
66886;SDS011;67239;51.680;5.976;2023-07-13T12:05:05;4.65;;;3.42;;
66886;SDS011;67239;51.680;5.976;2023-07-13T12:07:39;6.45;;;3.25;;
66886;SDS011;67239;51.680;5.976;2023-07-13T12:12:52;6.80;;;4.37;;
66886;SDS011;67239;51.680;5.976;2023-07-13T12:15:38;7.13;;;4.60;;
66886;SDS011;67239;51.680;5.976;2023-07-13T12:18:13;12.20;;;5.28;;
66886;SDS011;67239;51.680;5.976;2023-07-13T12:20:42;7.00;;;5.10;;
66886;SDS011;67239;51.680;5.976;2023-07-13T12:23:21;7.90;;;4.10;;
66886;SDS011;67239;51.680;5.976;2023-07-13T12:25:55;5.22;;;3.13;;
66886;SDS011;67239;51.680;5.976;2023-07-13T12:28:35;5.47;;;2.70;;
66886;SDS011;67239;51.680;5.976;2023-07-13T12:31:24;6.60;;;3.60;;
66886;SDS011;67239;51.680;5.976;2023-07-13T12:34:00;6.15;;;2.65;;
66886;SDS011;67239;51.680;5.976;2023-07-13T12:36:36;5.88;;;2.55;;
66886;SDS011;67239;51.680;5.976;2023-07-13T12:39:13;4.90;;;2.83;;
66886;SDS011;67239;51.680;5.976;2023-07-13T12:41:43;6.97;;;3.33;;
66886;SDS011;67239;51.680;5.976;2023-07-13T12:44:16;5.50;;;3.53;;
66886;SDS011;67239;51.680;5.976;2023-07-13T12:47:13;7.40;;;3.67;;
66886;SDS011;67239;51.680;5.976;2023-07-13T12:49:44;7.55;;;4.28;;
66886;SDS011;67239;51.680;5.976;2023-07-13T12:52:22;6.68;;;4.20;;
66886;SDS011;67239;51.680;5.976;2023-07-13T12:55:07;8.90;;;4.72;;
66886;SDS011;67239;51.680;5.976;2023-07-13T12:57:49;6.70;;;4.38;;
66886;SDS011;67239;51.680;5.976;2023-07-13T13:01:00;10.95;;;5.93;;
66886;SDS011;67239;51.680;5.976;2023-07-13T13:06:05;9.15;;;5.88;;
66886;SDS011;67239;51.680;5.976;2023-07-13T13:08:52;9.48;;;6.07;;
66886;SDS011;67239;51.680;5.976;2023-07-13T13:11:23;11.43;;;6.03;;
66886;SDS011;67239;51.680;5.976;2023-07-13T13:13:52;8.40;;;6.35;;
66886;SDS011;67239;51.680;5.976;2023-07-13T13:19:19;17.50;;;6.57;;
66886;SDS011;67239;51.680;5.976;2023-07-13T13:21:53;17.90;;;6.38;;
66886;SDS011;67239;51.680;5.976;2023-07-13T13:24:24;9.90;;;5.90;;
66886;SDS011;67239;51.680;5.976;2023-07-13T13:26:55;12.07;;;5.35;;
66886;SDS011;67239;51.680;5.976;2023-07-13T13:29:31;9.30;;;5.57;;
66886;SDS011;67239;51.680;5.976;2023-07-13T13:32:00;10.68;;;5.25;;
66886;SDS011;67239;51.680;5.976;2023-07-13T13:34:27;8.27;;;5.05;;
66886;SDS011;67239;51.680;5.976;2023-07-13T13:36:54;11.38;;;4.93;;
66886;SDS011;67239;51.680;5.976;2023-07-13T13:42:03;8.90;;;4.60;;
66886;SDS011;67239;51.680;5.976;2023-07-13T13:44:32;10.73;;;4.95;;
66886;SDS011;67239;51.680;5.976;2023-07-13T13:47:00;9.30;;;5.05;;
66886;SDS011;67239;51.680;5.976;2023-07-13T13:49:29;9.88;;;4.82;;
66886;SDS011;67239;51.680;5.976;2023-07-13T13:51:57;8.80;;;3.90;;
66886;SDS011;67239;51.680;5.976;2023-07-13T13:54:26;7.68;;;3.75;;
66886;SDS011;67239;51.680;5.976;2023-07-13T13:56:53;13.40;;;3.15;;
66886;SDS011;67239;51.680;5.976;2023-07-13T13:59:22;10.32;;;3.28;;
66886;SDS011;67239;51.680;5.976;2023-07-13T14:01:50;9.73;;;3.03;;
66886;SDS011;67239;51.680;5.976;2023-07-13T14:04:19;8.32;;;2.80;;
66886;SDS011;67239;51.680;5.976;2023-07-13T14:06:48;7.03;;;2.70;;
66886;SDS011;67239;51.680;5.976;2023-07-13T14:09:17;8.57;;;3.00;;
66886;SDS011;67239;51.680;5.976;2023-07-13T14:11:47;8.32;;;3.08;;
66886;SDS011;67239;51.680;5.976;2023-07-13T14:14:20;5.13;;;2.67;;
66886;SDS011;67239;51.680;5.976;2023-07-13T14:16:51;7.45;;;2.80;;
66886;SDS011;67239;51.680;5.976;2023-07-13T14:19:21;5.63;;;3.30;;
66886;SDS011;67239;51.680;5.976;2023-07-13T14:21:50;6.00;;;2.80;;
66886;SDS011;67239;51.680;5.976;2023-07-13T14:24:24;5.75;;;2.90;;
66886;SDS011;67239;51.680;5.976;2023-07-13T14:26:55;6.20;;;2.60;;
66886;SDS011;67239;51.680;5.976;2023-07-13T14:29:22;6.68;;;2.70;;
66886;SDS011;67239;51.680;5.976;2023-07-13T14:31:50;11.90;;;2.85;;
66886;SDS011;67239;51.680;5.976;2023-07-13T14:34:19;10.65;;;3.05;;
66886;SDS011;67239;51.680;5.976;2023-07-13T14:36:48;6.78;;;2.90;;
66886;SDS011;67239;51.680;5.976;2023-07-13T14:39:19;8.48;;;3.10;;
66886;SDS011;67239;51.680;5.976;2023-07-13T14:41:54;5.68;;;2.50;;
66886;SDS011;67239;51.680;5.976;2023-07-13T14:44:25;5.57;;;2.55;;
66886;SDS011;67239;51.680;5.976;2023-07-13T14:47:01;7.20;;;2.72;;
66886;SDS011;67239;51.680;5.976;2023-07-13T14:49:32;3.90;;;2.10;;
66886;SDS011;67239;51.680;5.976;2023-07-13T14:52:11;6.82;;;2.80;;
66886;SDS011;67239;51.680;5.976;2023-07-13T14:54:43;6.63;;;3.03;;
66886;SDS011;67239;51.680;5.976;2023-07-13T14:57:13;6.57;;;2.53;;
66886;SDS011;67239;51.680;5.976;2023-07-13T14:59:46;9.43;;;2.78;;
66886;SDS011;67239;51.680;5.976;2023-07-13T15:04:54;5.00;;;2.08;;
66886;SDS011;67239;51.680;5.976;2023-07-13T15:07:22;4.43;;;2.05;;
66886;SDS011;67239;51.680;5.976;2023-07-13T15:09:51;4.03;;;1.90;;
66886;SDS011;67239;51.680;5.976;2023-07-13T15:12:18;3.22;;;1.73;;
66886;SDS011;67239;51.680;5.976;2023-07-13T15:14:47;4.50;;;1.40;;
66886;SDS011;67239;51.680;5.976;2023-07-13T15:22:52;5.88;;;1.67;;
66886;SDS011;67239;51.680;5.976;2023-07-13T15:25:20;3.53;;;1.60;;
66886;SDS011;67239;51.680;5.976;2023-07-13T15:27:52;2.58;;;1.42;;
66886;SDS011;67239;51.680;5.976;2023-07-13T15:30:21;2.22;;;1.40;;
66886;SDS011;67239;51.680;5.976;2023-07-13T15:32:52;3.40;;;1.58;;
66886;SDS011;67239;51.680;5.976;2023-07-13T15:35:21;3.30;;;1.70;;
66886;SDS011;67239;51.680;5.976;2023-07-13T15:37:53;3.45;;;1.67;;
66886;SDS011;67239;51.680;5.976;2023-07-13T15:40:22;2.95;;;1.42;;
66886;SDS011;67239;51.680;5.976;2023-07-13T15:42:51;2.83;;;1.40;;
66886;SDS011;67239;51.680;5.976;2023-07-13T15:45:22;3.53;;;1.33;;
66886;SDS011;67239;51.680;5.976;2023-07-13T15:47:54;4.13;;;1.75;;
66886;SDS011;67239;51.680;5.976;2023-07-13T15:50:22;5.10;;;1.58;;
66886;SDS011;67239;51.680;5.976;2023-07-13T15:52:52;3.22;;;1.60;;
66886;SDS011;67239;51.680;5.976;2023-07-13T15:55:22;4.90;;;1.50;;
66886;SDS011;67239;51.680;5.976;2023-07-13T15:57:50;4.10;;;1.60;;
66886;SDS011;67239;51.680;5.976;2023-07-13T16:02:51;4.07;;;1.75;;
66886;SDS011;67239;51.680;5.976;2023-07-13T16:05:21;3.35;;;1.70;;
66886;SDS011;67239;51.680;5.976;2023-07-13T16:07:51;4.82;;;2.13;;
66886;SDS011;67239;51.680;5.976;2023-07-13T16:10:22;3.13;;;1.85;;
66886;SDS011;67239;51.680;5.976;2023-07-13T16:12:59;3.88;;;1.70;;
66886;SDS011;67239;51.680;5.976;2023-07-13T16:15:28;4.72;;;2.13;;
66886;SDS011;67239;51.680;5.976;2023-07-13T16:17:55;7.32;;;2.10;;
66886;SDS011;67239;51.680;5.976;2023-07-13T16:20:23;4.38;;;1.70;;
66886;SDS011;67239;51.680;5.976;2023-07-13T16:22:52;4.53;;;2.28;;
66886;SDS011;67239;51.680;5.976;2023-07-13T16:25:23;3.70;;;2.00;;